Time;durP1;ratioP1;P1;durP2;ratioP2;P2;SDS_P1;SDS_P2;PMS_P1;PMS_P2;Temp;Humidity;BMP_temperature;BMP_pressure;BME280_temperature;BME280_humidity;BME280_pressure;Samples;Min_cycle;Max_cycle;Signal;HPM_P1;HPM_P2
2023/10/15 00:01:33;;;;;;;6.10;1.40;;;;;;;6.80;100.00;101095.16;4990977;28;20440;-79
2023/10/15 00:03:59;;;;;;;11.50;2.07;;;;;;;8.76;100.00;101316.22;4990038;28;20185;-79
2023/10/15 00:06:24;;;;;;;8.07;2.60;;;;;;;6.22;100.00;100774.66;4987037;28;20467;-79
2023/10/15 00:08:50;;;;;;;8.73;1.93;;;;;;;8.13;100.00;100992.00;4985759;28;20290;-78
2023/10/15 00:11:21;;;;;;;7.23;1.30;;;;;;;6.76;100.00;100636.09;4986914;28;20222;-79
2023/10/15 00:13:47;;;;;;;5.43;1.63;;;;;;;6.34;100.00;100503.41;4989765;28;20472;-79
2023/10/15 00:16:22;;;;;;;6.60;1.73;;;;;;;7.60;100.00;100717.88;4989765;28;20464;-80
2023/10/15 00:18:48;;;;;;;8.27;1.73;;;;;;;6.02;100.00;100430.75;4990128;28;20457;-80
2023/10/15 00:21:14;;;;;;;5.70;1.33;;;;;;;6.48;100.00;100698.91;4993037;28;20468;-80
2023/10/15 00:23:42;;;;;;;4.97;1.90;;;;;;;7.28;100.00;101044.53;4990210;28;20437;-80
2023/10/15 00:26:12;;;;;;;6.00;1.43;;;;;;;6.55;100.00;100990.38;5005322;28;20433;-80
2023/10/15 00:28:41;;;;;;;5.63;1.40;;;;;;;6.14;100.00;100881.22;4990148;28;20519;-80
2023/10/15 00:31:13;;;;;;;5.97;1.40;;;;;;;7.58;100.00;101075.78;4991701;28;20479;-81
2023/10/15 00:33:48;;;;;;;5.73;1.37;;;;;;;6.93;100.00;101055.47;4993610;28;20420;-81
2023/10/15 00:36:14;;;;;;;6.27;1.40;;;;;;;5.50;100.00;100904.97;5004328;28;20428;-80
2023/10/15 00:38:43;;;;;;;6.80;1.50;;;;;;;5.93;100.00;100889.72;4988110;28;20465;-78
2023/10/15 00:41:10;;;;;;;7.60;2.07;;;;;;;5.16;100.00;100862.50;4992230;28;20435;-79
2023/10/15 00:43:36;;;;;;;9.63;2.30;;;;;;;5.64;100.00;100989.47;4991179;28;20428;-78
2023/10/15 00:46:13;;;;;;;4.87;1.37;;;;;;;6.37;100.00;101059.84;4987535;28;20436;-78
2023/10/15 00:48:39;;;;;;;8.70;1.90;;;;;;;6.62;100.00;101214.41;4987816;28;20386;-79
2023/10/15 00:51:13;;;;;;;8.20;1.90;;;;;;;6.61;100.00;101167.44;4987638;28;20428;-77
2023/10/15 00:53:53;;;;;;;12.37;2.60;;;;;;;6.36;100.00;101132.75;4990221;28;20432;-79
2023/10/15 00:56:25;;;;;;;7.10;1.67;;;;;;;7.15;100.00;101207.81;4986961;28;20441;-79
2023/10/15 01:03:52;;;;;;;5.10;1.20;;;;;;;5.52;100.00;101008.56;4984741;28;20654;-78
2023/10/15 01:06:44;;;;;;;5.57;1.50;;;;;;;6.44;100.00;101137.28;4985045;28;21118;-76
2023/10/15 01:09:17;;;;;;;7.40;1.50;;;;;;;5.82;100.00;101007.97;4989233;28;20486;-77
2023/10/15 01:11:44;;;;;;;6.70;1.60;;;;;;;5.75;100.00;100935.06;4982217;28;20448;-77
2023/10/15 01:14:10;;;;;;;4.90;1.50;;;;;;;6.39;100.00;101033.00;4984246;28;20946;-77
2023/10/15 01:16:38;;;;;;;7.63;1.20;;;;;;;6.09;100.00;101030.00;4988160;28;20441;-77
2023/10/15 01:21:43;;;;;;;6.07;1.73;;;;;;;6.88;100.00;101160.97;4990396;28;20437;-78
2023/10/15 01:24:08;;;;;;;4.00;1.13;;;;;;;6.41;100.00;101085.13;4986950;28;20436;-79
2023/10/15 01:26:36;;;;;;;9.67;1.80;;;;;;;7.48;100.00;101262.81;5003851;28;20445;-78
2023/10/15 01:29:05;;;;;;;6.27;1.20;;;;;;;7.83;100.00;101300.00;4985834;28;20256;-78
2023/10/15 01:31:39;;;;;;;6.33;1.90;;;;;;;6.36;100.00;100996.03;4988258;28;20471;-78
2023/10/15 01:34:09;;;;;;;5.43;1.50;;;;;;;7.08;100.00;101124.09;4992522;28;20439;-79
2023/10/15 01:36:38;;;;;;;7.57;1.60;;;;;;;6.40;100.00;101034.69;4991795;28;20440;-78
2023/10/15 01:39:10;;;;;;;4.70;1.40;;;;;;;5.85;100.00;100934.94;4990695;28;20472;-79
2023/10/15 01:41:39;;;;;;;6.30;1.20;;;;;;;6.57;100.00;101028.38;4990759;28;20436;-79
2023/10/15 01:44:06;;;;;;;9.50;1.80;;;;;;;7.08;100.00;101098.25;4990711;28;20925;-78
2023/10/15 01:46:48;;;;;;;4.33;1.23;;;;;;;8.65;100.00;101388.00;4991693;28;20444;-79
2023/10/15 01:49:31;;;;;;;5.53;1.50;;;;;;;6.27;100.00;101000.53;4993923;28;20461;-78
2023/10/15 01:52:05;;;;;;;7.83;1.20;;;;;;;6.43;100.00;100955.25;4988552;28;20437;-79
2023/10/15 01:54:31;;;;;;;4.33;0.80;;;;;;;7.40;100.00;101076.00;4992947;28;20794;-77
2023/10/15 01:56:57;;;;;;;3.00;0.83;;;;;;;6.35;100.00;100843.38;4990107;28;20815;-77
2023/10/15 01:59:23;;;;;;;4.27;1.00;;;;;;;6.06;100.00;100823.47;4990942;28;20467;-77
2023/10/15 02:01:51;;;;;;;4.83;1.10;;;;;;;5.72;100.00;100801.50;4984907;28;20174;-78
2023/10/15 02:04:26;;;;;;;2.70;0.93;;;;;;;6.17;100.00;100853.41;4989683;28;20473;-78
2023/10/15 02:06:51;;;;;;;3.73;1.23;;;;;;;8.38;100.00;101118.25;4987137;28;20448;-78
2023/10/15 02:09:21;;;;;;;4.50;1.20;;;;;;;6.82;100.00;100812.34;4988437;28;20461;-78
2023/10/15 02:11:48;;;;;;;4.37;0.90;;;;;;;5.78;100.00;100641.97;4984620;28;20236;-78
2023/10/15 02:14:30;;;;;;;5.20;1.00;;;;;;;6.29;100.00;100793.44;4991060;28;20520;-78
2023/10/15 02:16:59;;;;;;;3.77;0.97;;;;;;;7.43;100.00;101138.88;4990658;28;20452;-78
2023/10/15 02:22:00;;;;;;;4.50;1.00;;;;;;;6.81;100.00;101011.50;4992503;28;20531;-78
2023/10/15 02:24:25;;;;;;;5.20;1.10;;;;;;;7.29;100.00;101035.50;4987218;28;20856;-78
2023/10/15 02:26:50;;;;;;;7.37;1.50;;;;;;;6.66;100.00;100974.03;4989058;28;20209;-78
2023/10/15 02:32:08;;;;;;;6.67;1.63;;;;;;;6.99;100.00;101137.44;5038606;23;20716;-78
2023/10/15 02:34:44;;;;;;;10.40;1.63;;;;;;;5.63;100.00;100913.28;5012614;28;20439;-77
2023/10/15 02:37:11;;;;;;;6.73;1.30;;;;;;;6.27;100.00;101165.72;4999295;28;20524;-76
2023/10/15 02:39:43;;;;;;;4.77;1.30;;;;;;;4.67;100.00;100923.47;5003273;28;20488;-76
2023/10/15 02:42:10;;;;;;;5.27;1.03;;;;;;;7.85;100.00;101451.06;4996583;28;20470;-76
2023/10/15 02:44:38;;;;;;;5.50;1.40;;;;;;;7.41;100.00;101397.94;5004031;28;20440;-78
2023/10/15 02:47:10;;;;;;;3.70;0.80;;;;;;;6.96;100.00;101244.47;4994850;28;20437;-76
2023/10/15 02:49:59;;;;;;;6.03;1.40;;;;;;;8.16;100.00;101391.63;4999490;28;20476;-76
2023/10/15 02:52:26;;;;;;;4.90;1.00;;;;;;;7.91;100.00;101302.66;5000774;28;20799;-76
2023/10/15 02:54:52;;;;;;;8.80;1.40;;;;;;;7.55;100.00;101184.72;4999257;28;20436;-76
2023/10/15 02:57:18;;;;;;;5.10;1.10;;;;;;;8.16;100.00;101287.41;5003524;28;20499;-76
2023/10/15 02:59:50;;;;;;;3.27;0.90;;;;;;;8.25;100.00;101240.09;5007249;28;20201;-76
2023/10/15 03:02:18;;;;;;;3.93;0.90;;;;;;;7.78;100.00;101118.94;5016165;28;20185;-76
2023/10/15 03:04:49;;;;;;;3.80;0.90;;;;;;;8.51;100.00;101189.03;5018205;28;20511;-76
2023/10/15 03:07:30;;;;;;;2.90;0.97;;;;;;;8.44;100.00;101170.19;5005506;28;20452;-76
2023/10/15 03:09:59;;;;;;;2.20;0.73;;;;;;;7.78;100.00;101024.59;4998391;28;20560;-76
2023/10/15 03:12:25;;;;;;;3.50;0.90;;;;;;;8.55;100.00;101072.72;4997126;28;20444;-76
2023/10/15 03:14:54;;;;;;;3.60;1.00;;;;;;;7.80;100.00;100962.00;4998901;28;20456;-77
2023/10/15 03:17:26;;;;;;;3.30;0.97;;;;;;;8.47;100.00;101019.31;4997305;28;20519;-76
2023/10/15 03:19:54;;;;;;;4.80;1.00;;;;;;;7.68;100.00;100918.03;5001377;28;20460;-76
2023/10/15 03:22:23;;;;;;;2.93;0.73;;;;;;;8.31;100.00;100986.34;5003564;28;20441;-76
2023/10/15 03:24:53;;;;;;;2.00;0.70;;;;;;;8.07;100.00;100965.16;5001704;28;20440;-76
2023/10/15 03:27:23;;;;;;;4.60;0.77;;;;;;;7.63;100.00;100896.38;5004261;28;21169;-77
2023/10/15 03:29:51;;;;;;;3.70;0.80;;;;;;;7.86;100.00;100873.16;4999539;28;20812;-77
2023/10/15 03:32:17;;;;;;;4.90;1.47;;;;;;;8.17;100.00;100980.94;4998049;28;20964;-77
2023/10/15 03:34:42;;;;;;;2.70;0.80;;;;;;;8.00;100.00;100900.09;5001498;28;20445;-77
2023/10/15 03:37:15;;;;;;;3.20;0.63;;;;;;;8.03;100.00;100881.03;5000181;28;20523;-77
2023/10/15 03:42:09;;;;;;;3.87;1.20;;;;;;;8.61;100.00;100997.13;4996697;28;20492;-77
2023/10/15 03:44:45;;;;;;;3.57;0.90;;;;;;;8.45;100.00;101003.47;4999142;28;20537;-77
2023/10/15 03:47:16;;;;;;;4.73;0.90;;;;;;;8.39;100.00;100988.16;4999559;28;20808;-77
2023/10/15 03:49:44;;;;;;;8.07;0.90;;;;;;;7.51;100.00;100829.25;5001125;28;20472;-77
2023/10/15 03:52:14;;;;;;;3.80;0.70;;;;;;;7.79;100.00;100898.13;5000483;28;20459;-77
2023/10/15 03:54:42;;;;;;;2.60;0.87;;;;;;;8.28;100.00;100973.34;5004311;28;20444;-77
2023/10/15 03:57:08;;;;;;;3.47;0.80;;;;;;;7.30;100.00;100907.28;5003657;28;20447;-77
2023/10/15 03:59:52;;;;;;;2.43;0.70;;;;;;;7.59;100.00;100913.78;5001714;28;20824;-77
2023/10/15 04:02:29;;;;;;;4.00;0.80;;;;;;;8.16;100.00;100988.13;4999203;28;20197;-77
2023/10/15 04:05:01;;;;;;;5.30;0.80;;;;;;;8.22;100.00;101013.31;4995136;28;20448;-77
2023/10/15 04:07:38;;;;;;;5.83;0.80;;;;;;;8.42;100.00;101037.72;5003470;28;20440;-77
2023/10/15 04:10:05;;;;;;;3.40;0.60;;;;;;;7.79;100.00;100946.19;4995251;28;20475;-77
2023/10/15 04:12:30;;;;;;;1.97;0.73;;;;;;;7.80;100.00;100929.13;4998919;28;20444;-77
2023/10/15 04:14:58;;;;;;;3.70;0.73;;;;;;;7.73;100.00;100942.38;5002060;28;20451;-77
2023/10/15 04:17:24;;;;;;;6.20;1.00;;;;;;;7.41;100.00;101018.16;4999890;28;20186;-77
2023/10/15 04:19:49;;;;;;;2.90;0.80;;;;;;;7.05;100.00;100969.75;5001635;28;20949;-77
2023/10/15 04:22:15;;;;;;;1.90;0.60;;;;;;;8.10;100.00;101117.06;4998583;28;20684;-77
2023/10/15 04:24:49;;;;;;;4.63;0.90;;;;;;;8.50;100.00;101150.75;4998720;28;20231;-77
2023/10/15 04:27:16;;;;;;;4.03;0.80;;;;;;;-145.14;100.00;70583.66;5010375;28;20193;-77
2023/10/15 04:29:51;;;;;;;6.10;1.00;;;;;;;-145.14;100.00;70583.66;4994649;28;20883;-77
2023/10/15 04:35:11;;;;;;;6.37;1.10;;;;;;;-145.14;100.00;70583.66;4998956;28;20510;-76
2023/10/15 04:37:37;;;;;;;2.63;0.90;;;;;;;-145.14;100.00;70583.66;4996650;28;20824;-76
2023/10/15 04:40:05;;;;;;;3.80;1.00;;;;;;;-145.14;100.00;70583.66;5002384;28;20972;-76
2023/10/15 04:42:37;;;;;;;4.07;0.87;;;;;;;-145.14;100.00;70583.66;5001868;28;21425;-76
2023/10/15 04:45:20;;;;;;;2.63;0.80;;;;;;;-145.14;100.00;70583.66;4992843;28;21381;-76
2023/10/15 04:47:51;;;;;;;3.03;0.90;;;;;;;-145.14;100.00;70583.66;4998287;28;20497;-76
2023/10/15 04:50:16;;;;;;;2.33;0.80;;;;;;;-145.14;100.00;70583.66;4997579;28;20477;-76
2023/10/15 04:52:43;;;;;;;5.50;0.93;;;;;;;-145.14;100.00;70583.66;4998770;28;20894;-76
2023/10/15 04:55:10;;;;;;;3.93;0.80;;;;;;;-145.14;100.00;70583.66;5000092;28;20643;-76
2023/10/15 04:57:36;;;;;;;2.77;0.73;;;;;;;-145.14;100.00;70583.66;5005270;28;20432;-76
2023/10/15 05:00:06;;;;;;;3.07;0.70;;;;;;;-145.14;100.00;70583.66;5007029;28;20871;-76
2023/10/15 05:02:32;;;;;;;4.03;0.77;;;;;;;-145.14;100.00;70583.66;5001657;28;20443;-76
2023/10/15 05:04:58;;;;;;;4.33;0.90;;;;;;;-145.14;100.00;70583.66;5003902;28;20435;-76
2023/10/15 05:07:23;;;;;;;3.60;0.90;;;;;;;-145.14;100.00;70583.66;5003471;28;20443;-76
2023/10/15 05:09:49;;;;;;;4.90;0.83;;;;;;;-145.14;100.00;70583.66;5001958;28;20221;-76
2023/10/15 05:12:14;;;;;;;2.20;0.70;;;;;;;-145.14;100.00;70583.66;4995564;28;20194;-76
2023/10/15 05:14:40;;;;;;;5.03;0.87;;;;;;;-145.14;100.00;70583.66;5005418;28;20231;-76
2023/10/15 05:17:06;;;;;;;2.67;1.00;;;;;;;-145.14;100.00;70583.66;5001539;28;20193;-76
2023/10/15 05:19:31;;;;;;;3.87;1.00;;;;;;;-145.14;100.00;70583.66;5004236;28;20449;-76
2023/10/15 05:21:57;;;;;;;3.40;1.00;;;;;;;-145.14;100.00;70583.66;5004452;28;20185;-76
2023/10/15 05:24:23;;;;;;;3.33;0.83;;;;;;;-145.14;100.00;70583.66;5001696;28;20281;-76
2023/10/15 05:26:49;;;;;;;3.83;0.87;;;;;;;-145.14;100.00;70583.66;5002310;28;20251;-76
2023/10/15 05:29:15;;;;;;;2.67;0.70;;;;;;;-145.14;100.00;70583.66;5004233;28;20452;-77
2023/10/15 05:31:41;;;;;;;4.83;0.97;;;;;;;-145.14;100.00;70583.66;5002301;28;20198;-77
2023/10/15 05:34:07;;;;;;;3.03;0.87;;;;;;;-145.14;100.00;70583.66;4999991;28;20861;-77
2023/10/15 05:36:36;;;;;;;4.00;1.10;;;;;;;-145.14;100.00;70583.66;5003253;28;20467;-77
2023/10/15 05:39:06;;;;;;;3.70;0.80;;;;;;;-145.14;100.00;70583.66;5001145;28;20625;-77
2023/10/15 05:41:32;;;;;;;4.27;1.10;;;;;;;-145.14;100.00;70583.66;5002978;28;20433;-77
2023/10/15 05:43:58;;;;;;;3.70;1.00;;;;;;;-145.14;100.00;70583.66;4998707;28;20438;-76
2023/10/15 05:46:24;;;;;;;3.60;0.93;;;;;;;-145.14;100.00;70583.66;5000852;28;20386;-77
2023/10/15 05:48:49;;;;;;;3.90;1.03;;;;;;;-145.14;100.00;70583.66;4998967;28;20467;-76
2023/10/15 05:51:15;;;;;;;3.83;1.10;;;;;;;-145.14;100.00;70583.66;4997942;28;20685;-76
2023/10/15 05:53:40;;;;;;;3.83;0.90;;;;;;;-145.14;100.00;70583.66;5000842;28;20212;-76
2023/10/15 05:56:05;;;;;;;4.93;1.03;;;;;;;-145.14;100.00;70583.66;5002512;28;20311;-77
2023/10/15 05:58:31;;;;;;;4.00;0.80;;;;;;;-145.14;100.00;70583.66;4997040;28;20205;-77
2023/10/15 06:00:57;;;;;;;2.80;0.93;;;;;;;-145.14;100.00;70583.66;5002160;28;20227;-77
2023/10/15 06:03:23;;;;;;;4.73;0.80;;;;;;;-145.14;100.00;70583.66;5000242;28;20447;-77
2023/10/15 06:05:48;;;;;;;3.17;0.83;;;;;;;-145.14;100.00;70583.66;5005320;28;20204;-77
2023/10/15 06:08:14;;;;;;;3.63;0.90;;;;;;;-145.14;100.00;70583.66;5000642;28;20208;-77
2023/10/15 06:10:39;;;;;;;2.77;0.73;;;;;;;-145.14;100.00;70583.66;5002101;28;20209;-77
2023/10/15 06:13:05;;;;;;;3.40;0.80;;;;;;;-145.14;100.00;70583.66;4997429;28;20189;-77
2023/10/15 06:15:30;;;;;;;4.03;0.90;;;;;;;-145.14;100.00;70583.66;4997772;28;20556;-77
2023/10/15 06:17:56;;;;;;;3.63;1.00;;;;;;;-145.14;100.00;70583.66;5003697;28;20692;-77
2023/10/15 06:20:21;;;;;;;5.60;1.00;;;;;;;-145.14;100.00;70583.66;5005145;28;20491;-77
2023/10/15 06:22:48;;;;;;;4.17;1.43;;;;;;;-145.14;100.00;70583.66;5001818;28;20189;-77
2023/10/15 06:25:18;;;;;;;3.90;1.80;;;;;;;-145.14;100.00;70583.66;5018138;28;20989;-77
2023/10/15 06:27:43;;;;;;;6.07;1.37;;;;;;;-145.14;100.00;70583.66;5002543;28;20908;-77
2023/10/15 06:30:16;;;;;;;2.83;1.00;;;;;;;-145.14;100.00;70583.66;5001519;28;20485;-78
2023/10/15 06:32:49;;;;;;;6.20;2.53;;;;;;;-145.14;100.00;70583.66;5005028;28;20209;-78
2023/10/15 06:35:20;;;;;;;24.60;14.57;;;;;;;-145.14;100.00;70583.66;4996700;28;20447;-77
2023/10/15 06:37:47;;;;;;;132.97;71.77;;;;;;;-145.14;100.00;70583.66;4996639;28;20455;-78
2023/10/15 06:40:16;;;;;;;42.00;25.63;;;;;;;-145.14;100.00;70583.66;4999325;28;20929;-78
2023/10/15 06:42:43;;;;;;;11.33;3.50;;;;;;;-145.14;100.00;70583.66;5000989;28;20522;-78
2023/10/15 06:45:09;;;;;;;4.57;1.60;;;;;;;-145.14;100.00;70583.66;5010231;28;20509;-77
2023/10/15 06:47:36;;;;;;;6.07;1.20;;;;;;;-145.14;100.00;70583.66;5008305;28;20451;-78
2023/10/15 06:50:08;;;;;;;4.53;1.07;;;;;;;-145.14;100.00;70583.66;5000412;28;20892;-78
2023/10/15 06:52:39;;;;;;;5.60;1.10;;;;;;;-145.14;100.00;70583.66;5007461;28;20444;-78
2023/10/15 06:55:05;;;;;;;2.83;0.80;;;;;;;-145.14;100.00;70583.66;4999554;28;20448;-78
2023/10/15 06:57:32;;;;;;;3.90;1.00;;;;;;;-145.14;100.00;70583.66;5000205;28;21397;-78
2023/10/15 06:59:58;;;;;;;4.23;1.00;;;;;;;-145.14;100.00;70583.66;5003246;28;20538;-78
2023/10/15 07:02:23;;;;;;;3.70;1.20;;;;;;;-145.14;100.00;70583.66;5000301;28;20817;-77
2023/10/15 07:04:49;;;;;;;5.40;1.07;;;;;;;-145.14;100.00;70583.66;4997478;28;20444;-78
2023/10/15 07:07:14;;;;;;;7.40;1.83;;;;;;;-145.14;100.00;70583.66;5000659;28;20208;-77
2023/10/15 07:09:40;;;;;;;4.30;1.17;;;;;;;-145.14;100.00;70583.66;4999636;28;20230;-77
2023/10/15 07:12:06;;;;;;;5.17;1.27;;;;;;;-145.14;100.00;70583.66;4996713;28;20274;-77
2023/10/15 07:14:32;;;;;;;8.50;1.30;;;;;;;-145.14;100.00;70583.66;4998925;28;20538;-77
2023/10/15 07:16:57;;;;;;;7.43;1.47;;;;;;;-145.14;100.00;70583.66;5003005;28;20235;-77
2023/10/15 07:19:25;;;;;;;6.43;1.30;;;;;;;-145.14;100.00;70583.66;4998491;28;20213;-78
2023/10/15 07:21:52;;;;;;;6.53;1.80;;;;;;;-145.14;100.00;70583.66;5004086;28;20235;-78
2023/10/15 07:24:17;;;;;;;13.97;10.93;;;;;;;-145.14;100.00;70583.66;4998916;28;20437;-78
2023/10/15 07:26:42;;;;;;;8.47;6.07;;;;;;;-145.14;100.00;70583.66;5005060;28;20921;-77
2023/10/15 07:29:08;;;;;;;4.80;3.37;;;;;;;-145.14;100.00;70583.66;5007165;28;20212;-78
2023/10/15 07:31:33;;;;;;;4.23;1.63;;;;;;;-145.14;100.00;70583.66;5000545;28;20300;-78
2023/10/15 07:34:00;;;;;;;4.77;1.00;;;;;;;-145.14;100.00;70583.66;5005523;28;20668;-78
2023/10/15 07:36:26;;;;;;;4.80;1.40;;;;;;;-145.14;100.00;70583.66;5000857;28;20193;-78
2023/10/15 07:38:51;;;;;;;5.87;1.30;;;;;;;-145.14;100.00;70583.66;5000170;28;20472;-77
2023/10/15 07:41:16;;;;;;;5.53;1.90;;;;;;;-145.14;100.00;70583.66;4996915;28;20182;-78
2023/10/15 07:43:42;;;;;;;4.43;1.43;;;;;;;-145.14;100.00;70583.66;5002733;28;20185;-77
2023/10/15 07:46:08;;;;;;;4.67;1.30;;;;;;;-145.14;100.00;70583.66;4998614;28;20196;-77
2023/10/15 07:48:33;;;;;;;4.70;1.10;;;;;;;-145.14;100.00;70583.66;4997496;28;20693;-78
2023/10/15 07:50:59;;;;;;;4.53;1.17;;;;;;;-145.14;100.00;70583.66;5002347;28;20211;-78
2023/10/15 07:53:24;;;;;;;7.30;1.53;;;;;;;-145.14;100.00;70583.66;4999434;28;20567;-77
2023/10/15 07:55:50;;;;;;;7.23;1.50;;;;;;;-145.14;100.00;70583.66;4999955;28;20194;-77
2023/10/15 07:58:16;;;;;;;6.00;1.20;;;;;;;-145.14;100.00;70583.66;5003757;28;20219;-76
2023/10/15 08:00:41;;;;;;;6.10;1.20;;;;;;;-145.14;100.00;70583.66;4997748;28;20590;-77
2023/10/15 08:03:07;;;;;;;3.57;1.03;;;;;;;-145.14;100.00;70583.66;4998336;28;20473;-76
2023/10/15 08:05:33;;;;;;;3.20;0.90;;;;;;;-145.14;100.00;70583.66;5003993;28;20272;-76
2023/10/15 08:07:59;;;;;;;3.03;1.00;;;;;;;-145.14;100.00;70583.66;4999702;28;20538;-77
2023/10/15 08:10:31;;;;;;;2.00;0.70;;;;;;;-145.14;100.00;70583.66;4997226;28;20478;-77
2023/10/15 08:12:58;;;;;;;2.37;0.83;;;;;;;-145.14;100.00;70583.66;4998834;28;20435;-77
2023/10/15 08:15:24;;;;;;;4.10;1.00;;;;;;;-145.14;100.00;70583.66;4999733;28;20494;-77
2023/10/15 08:17:50;;;;;;;2.63;0.70;;;;;;;-145.14;100.00;70583.66;4999055;28;20436;-77
2023/10/15 08:20:15;;;;;;;2.20;0.80;;;;;;;-145.14;100.00;70583.66;4999586;28;20639;-76
2023/10/15 08:22:41;;;;;;;2.87;0.80;;;;;;;-145.14;100.00;70583.66;4999726;28;20469;-77
2023/10/15 08:25:13;;;;;;;2.93;1.03;;;;;;;-145.14;100.00;70583.66;4999201;28;20239;-77
2023/10/15 08:27:44;;;;;;;3.10;1.27;;;;;;;-145.14;100.00;70583.66;4999844;28;20478;-77
2023/10/15 08:30:12;;;;;;;5.47;1.57;;;;;;;-145.14;100.00;70583.66;5000200;28;21366;-78
2023/10/15 08:32:41;;;;;;;3.40;1.30;;;;;;;-145.14;100.00;70583.66;5004133;28;20447;-77
2023/10/15 08:35:08;;;;;;;6.00;1.67;;;;;;;-145.14;100.00;70583.66;5000226;28;20526;-77
2023/10/15 08:37:35;;;;;;;3.90;1.20;;;;;;;-145.14;100.00;70583.66;5000425;28;20445;-76
2023/10/15 08:40:04;;;;;;;4.10;0.90;;;;;;;-145.14;100.00;70583.66;5000107;28;20488;-76
2023/10/15 08:42:35;;;;;;;6.43;1.03;;;;;;;-145.14;100.00;70583.66;4999338;28;20445;-76
2023/10/15 08:45:04;;;;;;;12.73;1.40;;;;;;;-145.14;100.00;70583.66;5000808;28;20471;-76
2023/10/15 08:47:33;;;;;;;4.47;1.30;;;;;;;-145.14;100.00;70583.66;4998375;28;20518;-77
2023/10/15 08:49:59;;;;;;;3.50;1.20;;;;;;;-145.14;100.00;70583.66;5000341;28;20558;-76
2023/10/15 08:52:27;;;;;;;4.67;1.87;;;;;;;-145.14;100.00;70583.66;4999439;28;20837;-77
2023/10/15 08:54:53;;;;;;;8.37;1.73;;;;;;;-145.14;100.00;70583.66;4997173;28;20999;-77
2023/10/15 08:57:20;;;;;;;5.57;1.10;;;;;;;-145.14;100.00;70583.66;4998700;28;20445;-76
2023/10/15 08:59:47;;;;;;;7.30;1.40;;;;;;;-145.14;100.00;70583.66;5004201;28;20463;-76
2023/10/15 09:02:15;;;;;;;7.37;1.57;;;;;;;-145.14;100.00;70583.66;4999371;28;20531;-76
2023/10/15 09:04:44;;;;;;;7.33;3.80;;;;;;;-145.14;100.00;70583.66;5001065;28;20478;-76
2023/10/15 09:07:12;;;;;;;4.20;1.47;;;;;;;-145.14;100.00;70583.66;5000454;28;20499;-77
2023/10/15 09:09:38;;;;;;;6.57;1.50;;;;;;;-145.14;100.00;70583.66;5039599;23;20444;-76
2023/10/15 09:12:06;;;;;;;7.57;1.57;;;;;;;-145.14;100.00;70583.66;4982166;28;20462;-77
2023/10/15 09:14:42;;;;;;;5.37;1.30;;;;;;;-145.14;100.00;70583.66;4966215;28;20532;-78
2023/10/15 09:17:10;;;;;;;6.33;1.30;;;;;;;-145.14;100.00;70583.66;4979496;28;20501;-78
2023/10/15 09:19:39;;;;;;;5.60;1.60;;;;;;;-145.14;100.00;70583.66;4963415;28;20952;-76
2023/10/15 09:22:14;;;;;;;6.87;1.90;;;;;;;-145.14;100.00;70583.66;4967809;28;20441;-77
2023/10/15 09:24:40;;;;;;;5.03;1.57;;;;;;;-145.14;100.00;70583.66;4971829;28;20440;-77
2023/10/15 09:27:07;;;;;;;7.57;1.50;;;;;;;-145.14;100.00;70583.66;4967634;28;20441;-77
2023/10/15 09:29:32;;;;;;;5.30;1.33;;;;;;;-145.14;100.00;70583.66;4974645;28;20461;-77
2023/10/15 09:32:02;;;;;;;3.20;1.07;;;;;;;-145.14;100.00;70583.66;4977331;28;20455;-79
2023/10/15 09:34:29;;;;;;;2.90;0.80;;;;;;;-145.14;100.00;70583.66;4967210;28;20224;-77
2023/10/15 09:36:54;;;;;;;2.10;0.90;;;;;;;-145.14;100.00;70583.66;4971798;28;20859;-77
2023/10/15 09:39:20;;;;;;;2.00;0.90;;;;;;;-145.14;100.00;70583.66;4967916;28;20473;-77
2023/10/15 09:41:45;;;;;;;1.90;0.80;;;;;;;-145.14;100.00;70583.66;4971382;28;20644;-78
2023/10/15 09:44:16;;;;;;;2.70;0.70;;;;;;;-145.14;100.00;70583.66;4973435;28;20833;-77
2023/10/15 09:46:45;;;;;;;4.10;1.13;;;;;;;-145.14;100.00;70583.66;4977531;28;21038;-78
2023/10/15 09:49:12;;;;;;;3.30;0.90;;;;;;;-145.14;100.00;70583.66;4980434;28;20465;-77
2023/10/15 09:51:38;;;;;;;1.80;0.70;;;;;;;-145.14;100.00;70583.66;4969214;28;20469;-78
2023/10/15 09:54:06;;;;;;;3.27;1.17;;;;;;;-145.14;100.00;70583.66;4971143;28;20441;-78
2023/10/15 09:56:35;;;;;;;4.50;1.03;;;;;;;-145.14;100.00;70583.66;4965467;28;20549;-77
2023/10/15 09:59:02;;;;;;;2.80;1.13;;;;;;;-145.14;100.00;70583.66;4970684;28;20500;-78
2023/10/15 10:01:30;;;;;;;2.93;0.93;;;;;;;-145.14;100.00;70583.66;4980634;28;20859;-77
2023/10/15 10:04:35;;;;;;;8.30;2.27;;;;;;;-145.14;100.00;70583.66;4971521;28;20474;-77
2023/10/15 10:07:47;;;;;;;10.03;5.80;;;;;;;-145.14;100.00;70583.66;4971292;28;20454;-77
2023/10/15 10:10:41;;;;;;;4.73;1.43;;;;;;;-145.14;100.00;70583.66;4958270;28;20465;-78
2023/10/15 10:13:25;;;;;;;6.70;1.13;;;;;;;-145.14;100.00;70583.66;4962961;28;20473;-77
2023/10/15 10:15:57;;;;;;;4.53;1.10;;;;;;;-145.14;100.00;70583.66;4977523;28;20473;-78
2023/10/15 10:18:24;;;;;;;4.43;1.30;;;;;;;-145.14;100.00;70583.66;4967194;28;20453;-77
2023/10/15 10:20:50;;;;;;;6.73;1.17;;;;;;;-145.14;100.00;70583.66;4969654;28;20480;-77
2023/10/15 10:23:17;;;;;;;6.07;1.00;;;;;;;-145.14;100.00;70583.66;4963810;28;20796;-78
2023/10/15 10:25:47;;;;;;;2.80;1.20;;;;;;;-145.14;100.00;70583.66;4966855;28;20451;-77
2023/10/15 10:28:14;;;;;;;4.33;1.13;;;;;;;-145.14;100.00;70583.66;4964553;28;20469;-78
2023/10/15 10:30:51;;;;;;;5.17;1.30;;;;;;;-145.14;100.00;70583.66;4967194;28;20477;-78
2023/10/15 10:33:45;;;;;;;6.40;1.13;;;;;;;-145.14;100.00;70583.66;4961867;28;20457;-78
2023/10/15 10:36:36;;;;;;;2.23;0.70;;;;;;;-145.14;100.00;70583.66;4968604;28;20430;-77
2023/10/15 10:39:08;;;;;;;4.00;0.80;;;;;;;-145.14;100.00;70583.66;4962456;28;20532;-76
2023/10/15 10:41:36;;;;;;;2.43;0.73;;;;;;;-145.14;100.00;70583.66;4966748;28;20802;-76
2023/10/15 10:44:03;;;;;;;2.77;0.87;;;;;;;-145.14;100.00;70583.66;4965858;28;20509;-77
2023/10/15 10:46:29;;;;;;;3.50;1.00;;;;;;;-145.14;100.00;70583.66;4965586;28;20536;-77
2023/10/15 10:49:07;;;;;;;3.10;0.80;;;;;;;-145.14;100.00;70583.66;4978292;28;21053;-77
2023/10/15 10:51:36;;;;;;;6.33;1.30;;;;;;;-145.14;100.00;70583.66;4962028;28;20211;-77
2023/10/15 10:54:03;;;;;;;4.77;1.10;;;;;;;-145.14;100.00;70583.66;4967959;28;20864;-77
2023/10/15 10:56:41;;;;;;;6.00;1.20;;;;;;;-145.14;100.00;70583.66;4969664;28;20431;-77
2023/10/15 10:59:10;;;;;;;5.77;1.50;;;;;;;-145.14;100.00;70583.66;4962173;28;21041;-77
2023/10/15 11:01:40;;;;;;;3.40;1.13;;;;;;;-145.14;100.00;70583.66;4967416;28;20443;-78
2023/10/15 11:04:11;;;;;;;5.80;1.20;;;;;;;-145.14;100.00;70583.66;4962997;28;20763;-77
2023/10/15 11:06:39;;;;;;;6.40;1.20;;;;;;;-145.14;100.00;70583.66;4965161;28;20449;-77
2023/10/15 11:09:15;;;;;;;4.30;0.80;;;;;;;-145.14;100.00;70583.66;4967257;28;20646;-78
2023/10/15 11:11:45;;;;;;;2.27;0.70;;;;;;;-145.14;100.00;70583.66;4963840;28;20465;-77
2023/10/15 11:14:12;;;;;;;3.27;0.70;;;;;;;-145.14;100.00;70583.66;4964540;28;20447;-78
2023/10/15 11:16:47;;;;;;;4.70;1.00;;;;;;;-145.14;100.00;70583.66;4967189;28;20782;-76
2023/10/15 11:19:18;;;;;;;4.90;1.17;;;;;;;-145.14;100.00;70583.66;4970275;28;20475;-78
2023/10/15 11:21:44;;;;;;;3.50;1.20;;;;;;;-145.14;100.00;70583.66;4967231;28;24418;-76
2023/10/15 11:24:10;;;;;;;2.83;1.00;;;;;;;-145.14;100.00;70583.66;4969356;28;20928;-76
2023/10/15 11:26:42;;;;;;;4.37;1.00;;;;;;;-145.14;100.00;70583.66;4968952;28;20430;-78
2023/10/15 11:29:12;;;;;;;3.70;1.17;;;;;;;-145.14;100.00;70583.66;4970399;28;20461;-76
2023/10/15 11:31:48;;;;;;;3.47;0.93;;;;;;;-145.14;100.00;70583.66;4969515;28;20473;-77
2023/10/15 11:34:21;;;;;;;3.77;1.20;;;;;;;-145.14;100.00;70583.66;4967631;28;20453;-79
2023/10/15 11:36:50;;;;;;;4.30;0.93;;;;;;;-145.14;100.00;70583.66;4969524;28;21069;-79
2023/10/15 11:42:03;;;;;;;8.93;1.73;;;;;;;-145.14;100.00;70583.66;4968514;28;20616;-77
2023/10/15 11:44:31;;;;;;;4.97;1.60;;;;;;;-145.14;100.00;70583.66;4969293;28;20442;-79